Time;durP1;ratioP1;P1;durP2;ratioP2;P2;SDS_P1;SDS_P2;PMS_P1;PMS_P2;Temp;Humidity;BMP_temperature;BMP_pressure;BME280_temperature;BME280_humidity;BME280_pressure;Samples;Min_cycle;Max_cycle;Signal;HPM_P1;HPM_P2
2022/01/26 00:06:22;;;;;;;11.90;7.97;;;;;;;1.66;89.52;101322.97;2016005;86;21028;-80
2022/01/26 00:09:26;;;;;;;14.65;7.90;;;;;;;1.68;89.47;101320.27;2014274;86;21045;-80
2022/01/26 00:12:23;;;;;;;13.32;8.00;;;;;;;1.66;89.47;101316.44;2018975;85;21647;-80
2022/01/26 00:15:27;;;;;;;12.68;8.20;;;;;;;1.66;89.55;101309.02;2020839;86;21090;-80
2022/01/26 00:18:31;;;;;;;11.93;8.40;;;;;;;1.67;89.69;101303.72;2018017;86;21081;-80
2022/01/26 00:21:47;;;;;;;11.48;7.53;;;;;;;1.66;89.85;101302.05;2023428;85;21091;-80
2022/01/26 00:25:08;;;;;;;13.40;8.15;;;;;;;1.67;89.69;101312.88;2023303;86;21083;-80
2022/01/26 00:32:56;;;;;;;10.53;8.13;;;;;;;1.69;89.50;101309.73;2018650;86;21069;-80
2022/01/26 00:41:04;;;;;;;11.55;7.55;;;;;;;1.67;89.50;101311.58;2018325;86;21107;-80
2022/01/26 00:44:05;;;;;;;13.88;8.80;;;;;;;1.67;89.55;101302.41;2018396;86;21599;-81
2022/01/26 00:47:07;;;;;;;26.85;9.28;;;;;;;1.67;89.50;101302.88;2021866;86;21669;-80
2022/01/26 00:50:11;;;;;;;12.95;7.95;;;;;;;1.69;89.50;101306.23;2019710;86;21011;-80
2022/01/26 00:53:12;;;;;;;10.83;8.13;;;;;;;1.70;89.51;101304.87;1995261;86;21777;-80
2022/01/26 00:56:14;;;;;;;13.93;8.58;;;;;;;1.70;89.45;101290.95;2018646;86;21481;-80
2022/01/26 00:59:15;;;;;;;11.35;8.33;;;;;;;1.72;89.45;101295.64;2019754;86;21008;-80
2022/01/26 01:02:17;;;;;;;12.58;8.38;;;;;;;1.69;89.42;101280.95;2039705;85;21049;-80
2022/01/26 01:05:26;;;;;;;12.50;8.70;;;;;;;1.70;89.48;101277.39;2016717;86;21475;-80
2022/01/26 01:08:26;;;;;;;12.25;7.55;;;;;;;1.68;89.44;101281.85;2019140;86;21147;-80
2022/01/26 01:11:27;;;;;;;11.20;8.20;;;;;;;1.70;89.47;101274.77;2019238;86;20992;-80
2022/01/26 01:14:36;;;;;;;12.47;8.70;;;;;;;1.70;89.47;101280.01;2016091;86;21136;-80
2022/01/26 01:17:42;;;;;;;12.05;8.63;;;;;;;1.67;89.40;101284.09;2018039;86;21091;-80
2022/01/26 01:21:11;;;;;;;11.83;8.68;;;;;;;1.66;89.48;101283.73;2023411;86;21141;-80
2022/01/26 01:30:40;;;;;;;11.95;7.72;;;;;;;1.63;89.37;101265.55;2028727;86;21037;-80
2022/01/26 01:33:43;;;;;;;12.80;8.48;;;;;;;1.62;89.41;101270.41;2029261;86;21088;-80
2022/01/26 01:36:48;;;;;;;12.65;8.73;;;;;;;1.61;89.42;101270.03;2028399;85;21078;-80
2022/01/26 01:39:46;;;;;;;14.80;9.20;;;;;;;1.62;89.39;101271.72;2032513;86;21090;-79
2022/01/26 01:42:47;;;;;;;14.63;8.13;;;;;;;1.61;89.52;101267.42;2049216;85;21091;-79
2022/01/26 01:45:55;;;;;;;16.42;9.05;;;;;;;1.63;89.49;101266.86;1975914;89;21093;-80
2022/01/26 01:48:57;;;;;;;11.38;8.33;;;;;;;1.63;89.48;101261.63;2027697;86;21035;-80
2022/01/26 01:52:02;;;;;;;12.13;8.65;;;;;;;1.63;89.45;101260.78;2045303;86;21096;-80
2022/01/26 01:55:04;;;;;;;14.60;8.35;;;;;;;1.64;89.44;101264.64;2043674;86;21069;-80
2022/01/26 01:58:05;;;;;;;14.40;9.85;;;;;;;1.64;89.46;101258.56;2045710;86;21031;-80
2022/01/26 02:01:08;;;;;;;11.75;8.70;;;;;;;1.61;89.42;101258.27;2015007;87;21018;-80
2022/01/26 02:04:09;;;;;;;13.32;8.80;;;;;;;1.61;89.45;101258.27;2045169;86;21065;-79
2022/01/26 02:07:13;;;;;;;13.75;9.60;;;;;;;1.59;89.48;101261.42;2017349;87;21018;-79
2022/01/26 02:10:14;;;;;;;12.65;8.83;;;;;;;1.57;89.44;101263.27;2013236;87;21110;-80
2022/01/26 02:16:43;;;;;;;15.35;7.92;;;;;;;1.56;89.50;101266.34;2013177;87;21481;-80
2022/01/26 02:59:06;;;;;;;17.17;9.83;;;;;;;1.48;89.70;101243.67;2028795;85;21566;-81
2022/01/26 03:02:00;;;;;;;12.65;8.58;;;;;;;1.49;89.73;101234.05;2031685;85;21140;-81
2022/01/26 03:05:02;;;;;;;13.85;9.43;;;;;;;1.49;89.78;101233.61;2029959;85;21133;-80
2022/01/26 03:08:06;;;;;;;13.60;9.43;;;;;;;1.49;89.79;101230.12;2025081;86;21003;-80
2022/01/26 03:11:12;;;;;;;13.68;9.40;;;;;;;1.49;89.81;101234.91;2033644;85;21091;-80
2022/01/26 03:14:22;;;;;;;13.85;8.55;;;;;;;1.50;89.75;101242.30;2029406;86;21087;-80
2022/01/26 03:20:21;;;;;;;13.00;9.63;;;;;;;1.51;89.75;101241.35;2001701;86;21028;-81
2022/01/26 03:30:26;;;;;;;13.65;9.38;;;;;;;1.54;89.76;101235.95;2020299;86;21162;-80
2022/01/26 03:36:42;;;;;;;18.10;10.78;;;;;;;1.49;89.74;101237.97;2016273;86;21128;-80
2022/01/26 03:39:42;;;;;;;16.82;11.30;;;;;;;1.47;89.82;101235.45;2021200;86;21069;-80
2022/01/26 03:42:38;;;;;;;16.07;10.63;;;;;;;1.45;89.83;101233.84;2020399;86;21467;-80
2022/01/26 03:45:41;;;;;;;16.20;10.85;;;;;;;1.45;89.84;101239.91;2019706;86;21131;-81
2022/01/26 03:48:42;;;;;;;14.55;10.08;;;;;;;1.46;89.85;101235.52;2017912;85;21059;-80
2022/01/26 03:51:44;;;;;;;13.70;9.08;;;;;;;1.46;89.98;101231.13;2018452;86;21056;-80
2022/01/26 03:54:46;;;;;;;15.00;10.45;;;;;;;1.47;89.98;101229.38;2018447;86;21535;-80
2022/01/26 03:57:47;;;;;;;17.85;10.70;;;;;;;1.47;90.00;101235.92;2018022;86;21137;-81
2022/01/26 04:00:51;;;;;;;19.15;10.45;;;;;;;1.48;89.94;101242.83;2019150;85;21047;-80
2022/01/26 04:03:52;;;;;;;15.95;9.53;;;;;;;1.49;89.94;101244.07;2023437;86;21087;-80
2022/01/26 04:07:00;;;;;;;18.02;10.65;;;;;;;1.51;89.98;101243.50;2019008;86;21072;-80
2022/01/26 04:10:10;;;;;;;15.40;9.38;;;;;;;1.51;89.99;101236.96;2016401;86;21126;-80
2022/01/26 04:13:08;;;;;;;15.15;10.08;;;;;;;1.51;89.92;101247.42;2016424;86;21062;-80
2022/01/26 04:16:09;;;;;;;14.20;9.70;;;;;;;1.51;90.02;101244.81;2015966;86;21061;-81
2022/01/26 04:19:11;;;;;;;13.95;8.80;;;;;;;1.48;90.00;101242.36;2017136;86;21019;-81
2022/01/26 04:22:22;;;;;;;17.20;9.73;;;;;;;1.52;90.05;101245.64;2029505;86;22260;-81
2022/01/26 04:25:20;;;;;;;16.93;9.13;;;;;;;1.51;90.00;101240.89;2030740;86;21046;-80
2022/01/26 04:28:31;;;;;;;15.18;9.60;;;;;;;1.52;89.99;101239.11;2030368;86;21009;-80
2022/01/26 04:31:27;;;;;;;14.53;8.55;;;;;;;1.51;89.94;101242.19;2028794;86;21100;-80
2022/01/26 04:34:29;;;;;;;15.95;9.08;;;;;;;1.50;90.00;101233.98;2031890;86;21072;-81
2022/01/26 04:40:42;;;;;;;16.27;9.88;;;;;;;1.49;89.96;101241.89;2014308;86;21098;-80
2022/01/26 04:43:42;;;;;;;13.32;8.20;;;;;;;1.50;89.90;101242.30;2035226;86;21131;-80
2022/01/26 04:46:43;;;;;;;12.73;8.75;;;;;;;1.49;89.97;101241.89;2032434;86;21550;-80
2022/01/26 04:49:45;;;;;;;13.60;8.78;;;;;;;1.48;89.93;101242.83;2030703;86;21560;-80
2022/01/26 04:52:46;;;;;;;10.75;7.80;;;;;;;1.48;89.91;101225.83;2032730;86;21082;-80
2022/01/26 04:55:48;;;;;;;11.75;7.60;;;;;;;1.48;89.94;101227.13;2032713;86;21019;-80
2022/01/26 04:58:49;;;;;;;10.53;7.08;;;;;;;1.48;89.94;101220.59;2032916;86;21015;-80
2022/01/26 05:01:50;;;;;;;9.53;6.87;;;;;;;1.48;89.98;101218.81;2034827;86;21074;-81
2022/01/26 05:04:54;;;;;;;9.08;6.85;;;;;;;1.48;89.97;101222.73;2033834;86;21019;-81
2022/01/26 05:07:55;;;;;;;10.45;7.33;;;;;;;1.48;89.96;101216.67;2032753;86;21091;-80
2022/01/26 05:10:57;;;;;;;11.95;7.92;;;;;;;1.48;89.99;101214.05;2030470;86;21579;-79
2022/01/26 05:13:59;;;;;;;11.03;7.50;;;;;;;1.47;90.10;101216.30;2032832;86;21078;-80
2022/01/26 05:17:02;;;;;;;11.78;7.30;;;;;;;1.48;90.08;101215.36;2035232;86;21004;-80
2022/01/26 05:20:08;;;;;;;9.35;6.42;;;;;;;1.48;90.08;101210.13;2032621;86;21066;-80
2022/01/26 05:23:09;;;;;;;10.70;7.42;;;;;;;1.46;90.03;101201.52;2028425;86;21704;-80
2022/01/26 05:26:11;;;;;;;11.60;6.95;;;;;;;1.46;90.07;101211.50;2032570;86;21056;-80
2022/01/26 05:29:13;;;;;;;10.80;7.22;;;;;;;1.47;90.02;101207.98;2027689;86;21063;-80
2022/01/26 05:32:14;;;;;;;8.85;6.30;;;;;;;1.47;90.00;101204.53;2032591;86;21040;-80
2022/01/26 05:35:17;;;;;;;12.10;7.17;;;;;;;1.47;89.97;101200.61;2028066;86;21087;-80
2022/01/26 05:38:21;;;;;;;9.75;6.95;;;;;;;1.48;89.99;101206.20;2026627;86;21047;-80
2022/01/26 05:41:22;;;;;;;9.48;6.37;;;;;;;1.49;89.96;101203.52;2030626;86;21083;-80
2022/01/26 05:44:23;;;;;;;10.10;6.78;;;;;;;1.49;89.99;101198.30;2028573;86;21657;-80
2022/01/26 05:47:27;;;;;;;11.10;6.95;;;;;;;1.48;89.98;101204.43;2027910;86;21075;-80
2022/01/26 05:50:28;;;;;;;9.85;6.50;;;;;;;1.46;89.97;101197.59;2028525;86;21084;-80
2022/01/26 05:53:34;;;;;;;9.98;7.25;;;;;;;1.44;89.98;101192.45;2028885;86;21060;-80
2022/01/26 05:56:38;;;;;;;11.05;8.00;;;;;;;1.46;90.08;101191.05;2046718;86;21037;-80
2022/01/26 05:59:40;;;;;;;25.23;17.17;;;;;;;1.47;90.08;101194.91;2045381;86;21007;-81
2022/01/26 06:02:44;;;;;;;15.38;9.70;;;;;;;1.49;90.13;101194.38;1978177;89;21076;-80
2022/01/26 06:05:45;;;;;;;12.35;8.10;;;;;;;1.47;90.05;101196.21;2028899;86;21127;-80
2022/01/26 06:08:46;;;;;;;13.32;7.90;;;;;;;1.48;90.04;101200.98;1978146;89;21055;-80
2022/01/26 06:11:48;;;;;;;12.58;7.42;;;;;;;1.48;90.07;101198.36;2014955;87;21099;-80
2022/01/26 06:14:49;;;;;;;12.18;7.40;;;;;;;1.49;90.04;101194.38;2013792;86;20997;-80
2022/01/26 06:17:52;;;;;;;9.48;6.80;;;;;;;1.52;90.01;101194.20;2030279;86;21065;-80
2022/01/26 06:20:55;;;;;;;12.68;7.37;;;;;;;1.52;89.98;101194.64;2006384;87;21626;-79
2022/01/26 06:23:58;;;;;;;10.25;6.70;;;;;;;1.52;89.94;101199.87;1984533;87;21081;-80
2022/01/26 06:27:00;;;;;;;9.85;6.20;;;;;;;1.51;89.96;101192.49;1986306;87;21042;-80
2022/01/26 06:30:04;;;;;;;9.33;5.75;;;;;;;1.53;89.91;101189.34;1958397;88;21527;-80
2022/01/26 06:33:08;;;;;;;10.53;7.03;;;;;;;1.53;89.93;101191.95;1980722;87;21614;-82
2022/01/26 06:36:15;;;;;;;9.73;6.65;;;;;;;1.53;90.05;101192.42;1980269;88;21145;-82
2022/01/26 06:39:15;;;;;;;8.78;6.25;;;;;;;1.54;90.04;101185.78;1981271;87;21100;-83
2022/01/26 06:42:21;;;;;;;10.28;6.50;;;;;;;1.54;90.09;101190.17;1980849;88;21111;-81
2022/01/26 06:45:27;;;;;;;13.20;7.47;;;;;;;1.53;90.15;101189.34;1982075;88;21570;-80
2022/01/26 06:51:35;;;;;;;9.55;6.47;;;;;;;1.50;90.10;101182.97;1982554;88;21047;-80
2022/01/26 06:54:37;;;;;;;12.70;6.58;;;;;;;1.52;90.13;101185.48;1982019;88;21107;-82
2022/01/26 06:57:38;;;;;;;11.00;7.03;;;;;;;1.52;90.10;101189.41;1982288;88;21008;-80
2022/01/26 07:00:40;;;;;;;9.63;6.33;;;;;;;1.55;90.17;101186.66;1980013;88;21516;-81
2022/01/26 07:03:47;;;;;;;10.85;6.42;;;;;;;1.56;90.12;101185.72;1984610;88;21820;-81
2022/01/26 07:06:48;;;;;;;11.38;6.83;;;;;;;1.56;90.07;101183.94;1980313;88;21068;-81
2022/01/26 07:09:50;;;;;;;9.10;5.50;;;;;;;1.53;90.06;101190.65;1978061;87;21030;-81
2022/01/26 07:12:54;;;;;;;15.38;6.45;;;;;;;1.53;90.16;101176.73;1983095;88;21351;-82
2022/01/26 07:22:34;;;;;;;11.00;5.92;;;;;;;1.50;90.34;101179.52;1988908;88;21005;-82
2022/01/26 07:25:38;;;;;;;11.90;8.00;;;;;;;1.52;90.42;101182.43;1997992;88;22433;-82
2022/01/26 07:28:40;;;;;;;14.15;8.53;;;;;;;1.54;90.40;101187.56;1999674;88;21072;-82
2022/01/26 07:31:42;;;;;;;10.43;7.05;;;;;;;1.56;90.39;101183.94;2010111;88;21641;-81
2022/01/26 07:34:46;;;;;;;12.47;6.83;;;;;;;1.60;90.36;101185.91;2018117;86;21632;-82
2022/01/26 07:37:52;;;;;;;9.85;6.95;;;;;;;1.62;90.24;101188.47;1968570;89;21640;-80
2022/01/26 07:40:55;;;;;;;10.70;7.62;;;;;;;1.63;90.25;101187.05;2007910;88;21041;-82
2022/01/26 07:43:56;;;;;;;8.90;6.25;;;;;;;1.63;90.26;101192.76;1970144;89;21541;-82
2022/01/26 07:46:57;;;;;;;10.18;7.20;;;;;;;1.64;90.25;101194.47;1968313;89;21099;-80
2022/01/26 07:50:08;;;;;;;10.82;6.40;;;;;;;1.66;90.21;101195.20;1972498;89;21132;-80
2022/01/26 07:53:14;;;;;;;12.70;7.17;;;;;;;1.67;90.23;101195.14;1995658;88;21084;-81
2022/01/26 07:56:12;;;;;;;11.48;6.90;;;;;;;1.66;90.20;101193.45;1975387;89;21134;-80
2022/01/26 07:59:16;;;;;;;10.85;7.55;;;;;;;1.66;90.23;101193.45;1941608;89;21000;-81
2022/01/26 08:02:17;;;;;;;12.15;7.67;;;;;;;1.68;90.30;101192.89;1970342;88;21601;-80
2022/01/26 08:05:21;;;;;;;12.30;7.95;;;;;;;1.67;90.35;101189.91;1978811;88;21022;-80
2022/01/26 08:08:22;;;;;;;11.97;6.65;;;;;;;1.68;90.50;101194.67;1943310;89;21620;-80
2022/01/26 08:11:24;;;;;;;11.53;7.15;;;;;;;1.70;90.51;101192.82;2030919;87;20998;-81
2022/01/26 08:14:29;;;;;;;11.22;7.40;;;;;;;1.72;90.58;101180.50;2031858;87;21074;-80
2022/01/26 08:17:30;;;;;;;11.43;7.25;;;;;;;1.72;90.56;101187.05;2025898;87;21014;-82
2022/01/26 08:20:32;;;;;;;13.22;8.23;;;;;;;1.71;90.57;101191.41;2028792;87;21499;-82
2022/01/26 08:23:36;;;;;;;13.13;7.15;;;;;;;1.73;90.59;101187.41;2015686;86;21070;-82
2022/01/26 08:26:41;;;;;;;12.78;8.20;;;;;;;1.74;90.60;101186.48;2019844;85;21067;-81
2022/01/26 08:29:53;;;;;;;12.68;7.60;;;;;;;1.75;90.65;101198.66;2018729;86;21094;-83
2022/01/26 08:32:54;;;;;;;11.95;7.70;;;;;;;1.78;90.68;101191.94;2018639;86;21559;-82
2022/01/26 08:35:55;;;;;;;13.30;7.80;;;;;;;1.78;90.62;101191.94;2013524;86;21027;-82
2022/01/26 08:38:57;;;;;;;14.63;8.83;;;;;;;1.78;90.68;101190.16;2017486;86;21465;-82
2022/01/26 08:42:02;;;;;;;13.05;7.87;;;;;;;1.78;90.77;101187.55;2020731;85;21065;-83
2022/01/26 08:45:06;;;;;;;14.90;8.35;;;;;;;1.81;90.82;101188.31;2015877;86;21107;-82
2022/01/26 08:48:08;;;;;;;16.95;9.30;;;;;;;1.79;90.82;101186.61;2016830;86;21043;-82
2022/01/26 08:51:10;;;;;;;14.00;7.87;;;;;;;1.84;90.87;101195.99;2015915;86;21115;-82
2022/01/26 08:54:11;;;;;;;16.50;9.48;;;;;;;1.87;90.90;101195.82;2015741;86;21710;-82
2022/01/26 08:57:13;;;;;;;14.45;8.45;;;;;;;1.90;90.93;101192.56;2018769;86;21085;-82
2022/01/26 09:00:22;;;;;;;16.67;8.85;;;;;;;1.94;90.87;101182.76;2021846;86;21109;-80
2022/01/26 09:03:23;;;;;;;24.15;10.18;;;;;;;1.94;90.78;101188.86;2020390;86;21041;-82
2022/01/26 09:06:24;;;;;;;17.87;9.65;;;;;;;1.95;90.77;101193.16;2019569;86;21646;-84
2022/01/26 09:09:30;;;;;;;18.52;9.75;;;;;;;1.96;90.75;101197.92;2021237;86;21524;-84
2022/01/26 09:12:33;;;;;;;20.88;12.30;;;;;;;1.95;90.76;101193.63;2015984;85;21016;-80
2022/01/26 09:15:34;;;;;;;19.67;11.43;;;;;;;1.92;90.76;101205.11;2018088;86;21073;-83
2022/01/26 09:18:51;;;;;;;15.75;9.73;;;;;;;1.94;90.77;101207.63;2019621;86;20985;-83
2022/01/26 09:21:48;;;;;;;21.97;13.53;;;;;;;1.96;90.82;101208.39;2026431;85;21159;-83
2022/01/26 09:24:50;;;;;;;32.30;18.12;;;;;;;1.95;90.76;101208.86;2023384;85;21120;-82
2022/01/26 09:27:56;;;;;;;33.28;16.12;;;;;;;1.96;90.77;101210.54;2002633;87;21015;-83
2022/01/26 09:30:58;;;;;;;26.77;14.28;;;;;;;1.99;90.83;101212.98;1995761;88;21508;-80
2022/01/26 09:33:59;;;;;;;22.02;12.33;;;;;;;2.01;90.77;101207.21;1965198;88;21103;-83
2022/01/26 09:37:00;;;;;;;20.92;11.48;;;;;;;2.03;90.74;101207.14;2000093;88;21582;-83
2022/01/26 09:40:05;;;;;;;17.07;10.18;;;;;;;2.07;90.81;101206.02;1992372;88;21465;-84
2022/01/26 09:43:07;;;;;;;17.23;10.45;;;;;;;2.06;90.64;101201.73;1994686;88;21033;-84
2022/01/26 09:46:13;;;;;;;14.60;9.38;;;;;;;2.08;90.73;101202.47;1996215;88;21151;-83
2022/01/26 09:49:20;;;;;;;15.93;9.10;;;;;;;2.07;90.67;101200.79;1968899;88;21064;-83
2022/01/26 09:52:36;;;;;;;15.20;8.63;;;;;;;2.09;90.65;101198.09;1993487;87;21303;-83
2022/01/26 09:55:34;;;;;;;14.33;8.75;;;;;;;2.11;90.65;101189.67;1994125;88;21151;-82
2022/01/26 09:58:36;;;;;;;16.00;9.58;;;;;;;2.09;90.55;101188.47;1995171;88;21128;-83
2022/01/26 10:01:45;;;;;;;13.38;8.35;;;;;;;2.07;90.61;101185.55;1995573;88;21072;-82
2022/01/26 10:04:47;;;;;;;15.75;9.43;;;;;;;2.04;90.63;101185.25;1992307;88;21029;-85
2022/01/26 10:17:35;;;;;;;16.73;9.75;;;;;;;2.11;90.74;101181.38;1982214;88;21143;-78
2022/01/26 10:20:49;;;;;;;13.85;8.53;;;;;;;2.14;90.70;101176.41;1994469;88;21087;-77
2022/01/26 10:23:52;;;;;;;16.45;10.48;;;;;;;2.18;90.73;101168.30;1993574;88;21094;-76
2022/01/26 10:27:01;;;;;;;20.65;10.05;;;;;;;2.21;90.66;101169.43;2000251;88;21016;-80
2022/01/26 10:30:06;;;;;;;18.67;10.28;;;;;;;2.24;90.69;101165.32;1996434;88;21530;-80
2022/01/26 10:33:08;;;;;;;18.40;10.60;;;;;;;2.28;90.57;101166.45;1960821;89;21132;-78
2022/01/26 10:36:10;;;;;;;20.15;10.78;;;;;;;2.29;90.48;101164.23;1991207;88;21051;-78
2022/01/26 10:39:27;;;;;;;20.48;11.55;;;;;;;2.32;90.48;101157.51;1991528;88;21095;-79
2022/01/26 10:42:27;;;;;;;16.80;9.63;;;;;;;2.35;90.42;101156.86;1993703;88;21447;-79
2022/01/26 10:45:55;;;;;;;18.40;10.65;;;;;;;2.43;90.50;101153.80;1993915;88;21659;-78
2022/01/26 10:49:09;;;;;;;25.05;12.35;;;;;;;2.47;90.36;101152.67;1989254;88;21611;-78
2022/01/26 10:55:38;;;;;;;16.65;9.68;;;;;;;2.56;90.07;101152.16;1990962;88;21081;-76
2022/01/26 10:58:42;;;;;;;15.85;9.70;;;;;;;2.64;89.92;101146.45;1989293;88;21036;-80
2022/01/26 11:01:44;;;;;;;15.78;9.88;;;;;;;2.65;89.73;101143.75;1991484;88;21061;-74
2022/01/26 11:04:45;;;;;;;14.98;9.13;;;;;;;2.65;89.68;101138.98;1989137;88;21075;-77
2022/01/26 11:07:47;;;;;;;12.10;7.65;;;;;;;2.64;89.60;101146.45;1989453;88;21095;-77
2022/01/26 11:10:49;;;;;;;14.00;8.73;;;;;;;2.66;89.48;101148.52;1991570;88;21016;-76
2022/01/26 11:13:51;;;;;;;12.70;8.35;;;;;;;2.61;89.15;101142.23;1959072;88;21101;-77
2022/01/26 11:17:00;;;;;;;12.63;8.08;;;;;;;2.61;89.25;101140.91;1959592;88;21061;-77
2022/01/26 11:20:29;;;;;;;12.93;8.18;;;;;;;2.60;89.14;101141.86;1983237;88;21089;-78
2022/01/26 11:23:39;;;;;;;10.90;8.00;;;;;;;2.63;89.17;101142.98;1985509;87;21532;-80
2022/01/26 11:26:42;;;;;;;13.43;7.50;;;;;;;2.64;89.02;101141.20;1956226;89;21078;-79
2022/01/26 11:29:48;;;;;;;12.63;7.85;;;;;;;2.62;88.68;101136.55;1982213;89;21061;-78
2022/01/26 11:33:02;;;;;;;12.37;7.85;;;;;;;2.60;88.59;101139.24;1981053;88;21099;-78
2022/01/26 11:36:05;;;;;;;10.88;7.85;;;;;;;2.58;88.81;101133.71;2015680;86;21068;-78
2022/01/26 11:46:11;;;;;;;10.93;6.25;;;;;;;2.57;88.44;101131.56;2000360;86;21023;-77
2022/01/26 11:49:12;;;;;;;10.05;7.12;;;;;;;2.54;88.19;101129.13;2017819;85;20978;-77
2022/01/26 11:52:29;;;;;;;8.95;5.67;;;;;;;2.51;88.12;101129.31;2021510;85;21041;-80
2022/01/26 11:55:49;;;;;;;8.43;6.25;;;;;;;2.49;88.00;101127.24;2039830;85;21471;-76
2022/01/26 11:58:53;;;;;;;9.60;6.30;;;;;;;2.52;88.13;101137.53;2019382;86;21506;-76
2022/01/26 12:02:00;;;;;;;9.65;6.78;;;;;;;2.55;87.94;101133.42;2019015;86;21140;-75
2022/01/26 12:05:00;;;;;;;10.98;8.03;;;;;;;2.52;87.84;101118.36;2016511;86;21042;-75
2022/01/26 12:08:03;;;;;;;9.65;6.95;;;;;;;2.49;87.86;101118.07;2000234;86;21037;-77
2022/01/26 12:11:12;;;;;;;11.83;7.37;;;;;;;2.52;87.92;101119.67;1999710;86;21094;-78
2022/01/26 12:14:19;;;;;;;16.97;10.70;;;;;;;2.52;87.90;101116.58;2046639;85;21616;-78
2022/01/26 12:17:29;;;;;;;13.58;7.78;;;;;;;2.53;87.89;101118.25;1998511;85;21462;-77
2022/01/26 12:34:48;;;;;;;11.70;8.13;;;;;;;2.44;87.71;101130.59;2027585;86;21137;-79
2022/01/26 12:44:17;;;;;;;10.75;7.58;;;;;;;2.28;87.51;101124.55;2028287;86;21063;-78
2022/01/26 12:47:25;;;;;;;9.85;7.60;;;;;;;2.29;87.70;101121.02;2025208;86;21069;-82
2022/01/26 12:50:26;;;;;;;9.75;7.20;;;;;;;2.30;87.56;101122.70;2030224;85;21039;-77
2022/01/26 12:53:30;;;;;;;13.10;8.25;;;;;;;2.27;87.35;101125.02;2035405;86;21052;-77
2022/01/26 12:56:33;;;;;;;10.38;7.97;;;;;;;2.24;87.02;101119.97;2028691;86;22566;-84
2022/01/26 12:59:35;;;;;;;10.72;7.00;;;;;;;2.21;87.27;101119.67;2030588;86;21103;-78
2022/01/26 13:02:38;;;;;;;9.55;6.72;;;;;;;2.22;87.24;101125.75;1987584;86;21059;-78
2022/01/26 13:05:41;;;;;;;9.50;6.15;;;;;;;2.21;87.38;101121.45;2004886;86;21006;-78
2022/01/26 13:08:57;;;;;;;9.98;7.05;;;;;;;2.23;87.28;101103.89;2025517;86;21085;-77
2022/01/26 13:12:04;;;;;;;11.88;6.65;;;;;;;2.21;87.11;101113.12;2026504;86;21043;-82
2022/01/26 13:18:23;;;;;;;10.85;7.83;;;;;;;2.23;87.27;101113.05;2011054;86;20986;-77
2022/01/26 13:24:58;;;;;;;7.95;6.60;;;;;;;2.23;87.00;101116.51;2037890;85;21103;-76
2022/01/26 13:34:43;;;;;;;10.67;5.73;;;;;;;2.24;87.02;101111.64;2013139;87;21140;-78
2022/01/26 13:38:00;;;;;;;12.43;6.65;;;;;;;2.24;86.92;101107.70;2011139;87;21091;-79
2022/01/26 13:51:03;;;;;;;8.00;5.08;;;;;;;2.15;86.36;101097.77;1948731;90;21020;-78
2022/01/26 13:53:58;;;;;;;9.00;5.83;;;;;;;2.12;86.23;101098.42;2005515;87;21047;-82
2022/01/26 14:00:17;;;;;;;10.15;5.25;;;;;;;2.11;86.04;101094.97;2011987;87;21700;-78
2022/01/26 14:03:24;;;;;;;9.83;6.15;;;;;;;2.12;86.06;101091.41;2018498;87;21110;-77
2022/01/26 14:06:27;;;;;;;10.53;6.45;;;;;;;2.11;85.58;101083.63;2016516;87;21621;-76
2022/01/26 14:09:31;;;;;;;9.85;6.08;;;;;;;2.11;85.67;101081.88;2015165;87;21636;-78
2022/01/26 14:12:41;;;;;;;9.00;6.03;;;;;;;2.11;85.39;101081.88;2014450;87;21552;-79
2022/01/26 14:15:45;;;;;;;8.40;5.00;;;;;;;2.13;85.41;101089.16;2013806;87;21554;-80
2022/01/26 14:19:01;;;;;;;7.42;5.15;;;;;;;2.11;85.25;101084.50;1989712;87;21114;-80
2022/01/26 14:22:31;;;;;;;6.37;4.50;;;;;;;2.09;85.12;101083.73;1993699;87;21604;-81
2022/01/26 14:28:20;;;;;;;9.28;6.05;;;;;;;2.03;85.03;101082.78;2024879;85;21055;-75
2022/01/26 14:31:37;;;;;;;12.35;6.80;;;;;;;2.01;85.15;101085.95;2023618;86;21141;-79
2022/01/26 15:50:49;;;;;;;8.87;6.17;;;;;;;1.46;83.93;101058.96;2025387;86;21543;-82
2022/01/26 16:16:56;;;;;;;16.00;8.33;;;;;;;1.32;83.64;101051.44;2026689;86;21026;-83
2022/01/26 16:26:24;;;;;;;7.78;5.40;;;;;;;1.25;82.81;101055.30;2027999;87;21093;-82
2022/01/26 16:44:20;;;;;;;9.33;6.05;;;;;;;1.18;82.89;101064.40;2023399;86;21802;-83
2022/01/26 16:53:04;;;;;;;9.20;6.08;;;;;;;1.16;82.48;101059.73;2028934;87;21080;-80
2022/01/26 18:51:57;;;;;;;18.20;10.48;;;;;;;0.97;83.06;101033.74;2016856;86;21076;-81
2022/01/26 18:55:11;;;;;;;20.50;11.50;;;;;;;0.97;82.98;101031.59;2012130;86;21158;-81
2022/01/26 18:58:10;;;;;;;21.48;12.10;;;;;;;0.94;83.05;101029.99;2016098;85;21056;-81
2022/01/26 19:04:48;;;;;;;16.12;9.85;;;;;;;0.93;83.19;101019.61;1971346;86;21613;-77
2022/01/26 19:08:31;;;;;;;17.25;9.50;;;;;;;0.95;83.27;101017.77;2020323;86;22334;-80
2022/01/26 19:12:00;;;;;;;19.17;11.97;;;;;;;0.93;83.38;101003.48;1995486;86;21522;-79
2022/01/26 19:15:23;;;;;;;19.15;11.00;;;;;;;0.88;83.40;101008.95;2017143;85;21008;-77
2022/01/26 19:26:00;;;;;;;14.20;9.20;;;;;;;0.74;82.83;101007.55;2013972;85;22311;-79
2022/01/26 19:33:21;;;;;;;19.35;11.03;;;;;;;0.67;82.69;101002.25;2036655;84;21103;-77
2022/01/26 19:55:13;;;;;;;24.45;10.53;;;;;;;0.56;82.85;100991.53;2007992;85;21027;-82
2022/01/26 19:58:22;;;;;;;19.75;11.30;;;;;;;0.54;82.95;100992.10;2017257;86;21536;-80
2022/01/26 20:01:25;;;;;;;20.60;11.80;;;;;;;0.54;83.05;100999.94;2004672;86;21124;-80
2022/01/26 20:04:34;;;;;;;18.35;10.93;;;;;;;0.52;83.19;101010.91;2017623;86;21472;-78
2022/01/26 20:07:48;;;;;;;14.75;9.68;;;;;;;0.51;83.16;101014.43;2018570;86;21046;-78
2022/01/26 20:10:55;;;;;;;16.37;10.65;;;;;;;0.49;83.21;101025.44;1988658;85;21477;-80
2022/01/26 20:14:14;;;;;;;18.05;10.35;;;;;;;0.46;83.33;101013.86;2020262;86;21128;-78
2022/01/26 20:17:54;;;;;;;12.90;9.40;;;;;;;0.41;83.59;101003.64;2017058;86;21064;-78
2022/01/26 20:21:14;;;;;;;12.10;7.87;;;;;;;0.32;83.81;101015.88;2066869;84;21141;-79
2022/01/26 20:24:41;;;;;;;14.85;7.62;;;;;;;0.25;83.77;101011.41;1997378;85;21109;-78
2022/01/26 20:28:21;;;;;;;13.55;8.00;;;;;;;0.20;83.79;101006.91;1979083;88;21072;-79
2022/01/26 20:31:43;;;;;;;13.28;8.15;;;;;;;0.17;83.96;101008.34;1976651;88;21084;-79
2022/01/26 20:35:07;;;;;;;14.95;8.33;;;;;;;0.14;83.85;101019.81;1972937;88;21073;-78
2022/01/26 20:38:41;;;;;;;14.90;8.88;;;;;;;0.13;83.73;101000.30;1977345;87;21151;-79
2022/01/26 20:41:58;;;;;;;16.32;9.68;;;;;;;0.14;83.74;100996.32;1978990;88;21069;-78
2022/01/26 20:45:33;;;;;;;;;;;;;;;;;;;;;
2022/01/26 20:48:35;;;;;;;16.77;9.23;;;;;;;0.14;83.51;100999.37;1971045;87;21096;-78
2022/01/26 20:51:57;;;;;;;;;;;;;;;;;;;;;
2022/01/26 20:55:09;;;;;;;13.83;8.78;;;;;;;0.14;83.26;100991.54;1982974;88;21116;-78
2022/01/26 20:58:38;;;;;;;15.00;8.95;;;;;;;0.14;83.08;100997.62;1975161;87;21140;-79
2022/01/26 21:02:02;;;;;;;18.05;9.75;;;;;;;0.15;83.09;100993.25;1973525;88;21144;-79
2022/01/26 21:05:21;;;;;;;17.35;9.08;;;;;;;0.17;83.03;100986.16;1984856;88;21404;-79
2022/01/26 21:08:15;;;;;;;19.35;10.53;;;;;;;0.17;82.96;100965.28;1983961;86;21015;-80
2022/01/26 21:11:23;;;;;;;15.72;9.28;;;;;;;0.17;82.97;100961.36;2017637;85;21481;-79
2022/01/26 21:14:27;;;;;;;15.43;8.83;;;;;;;0.15;82.99;100967.14;2016442;86;21041;-79
2022/01/26 21:17:31;;;;;;;12.75;8.10;;;;;;;0.17;82.97;100975.72;2017623;86;21053;-79
2022/01/26 21:20:49;;;;;;;18.57;9.93;;;;;;;0.16;83.00;100976.66;2020206;86;21046;-80
2022/01/26 21:24:03;;;;;;;17.80;9.35;;;;;;;0.16;83.02;100977.95;2017917;86;21106;-79
2022/01/26 21:27:19;;;;;;;19.20;10.08;;;;;;;0.15;82.96;100985.41;2026034;86;21169;-79
2022/01/26 21:30:27;;;;;;;17.27;9.68;;;;;;;0.14;82.87;100981.97;2000640;86;22600;-79
2022/01/26 21:33:41;;;;;;;16.55;9.75;;;;;;;0.14;83.02;100966.74;2021268;86;21692;-79
2022/01/26 21:36:55;;;;;;;16.70;9.40;;;;;;;0.13;83.02;100972.43;2002141;86;21099;-80
2022/01/26 21:40:16;;;;;;;17.27;9.65;;;;;;;0.11;83.05;100972.96;2013598;86;21113;-80
2022/01/26 21:43:34;;;;;;;;;;;;;;;;;;;;;
2022/01/26 21:46:40;;;;;;;17.92;10.10;;;;;;;0.02;83.50;100966.92;2029047;86;21070;-80